Time;durP1;ratioP1;P1;durP2;ratioP2;P2;SDS_P1;SDS_P2;PMS_P1;PMS_P2;Temp;Humidity;BMP_temperature;BMP_pressure;BME280_temperature;BME280_humidity;BME280_pressure;Samples;Min_cycle;Max_cycle;Signal;HPM_P1;HPM_P2
2021/12/04 00:00:58;;;;;;;;;;;;;;;-1.37;60.55;98012.45;1569290;91;26193;-68
2021/12/04 00:03:23;;;;;;;;;;;;;;;-1.39;60.76;98015.39;1569381;91;25509;-69
2021/12/04 00:05:56;;;;;;;;;;;;;;;-1.38;60.69;98011.66;1569330;91;27455;-68
2021/12/04 00:08:18;;;;;;;;;;;;;;;-1.36;60.50;97999.31;1569120;91;25544;-68
2021/12/04 00:10:44;;;;;;;;;;;;;;;-1.37;60.66;97990.95;1569405;91;25715;-68
2021/12/04 00:13:10;;;;;;;;;;;;;;;-1.37;60.64;97990.95;1569181;91;25761;-68
2021/12/04 00:15:36;;;;;;;;;;;;;;;-1.37;60.61;97982.37;1569176;91;25662;-68
2021/12/04 00:18:03;;;;;;;;;;;;;;;-1.40;60.70;97991.75;1569405;91;27423;-68
2021/12/04 00:20:30;;;;;;;;;;;;;;;-1.41;60.74;97992.00;1569563;91;25625;-68
2021/12/04 00:22:59;;;;;;;;;;;;;;;-1.42;60.72;97984.98;1569214;91;25810;-68
2021/12/04 00:25:26;;;;;;;;;;;;;;;-1.42;60.82;97991.70;1569470;91;26469;-68
2021/12/04 00:27:53;;;;;;;;;;;;;;;-1.44;60.95;97993.85;1569573;91;25743;-68
2021/12/04 00:30:19;;;;;;;;;;;;;;;-1.46;60.96;97995.45;1569136;91;27507;-68
2021/12/04 00:32:55;;;;;;;;;;;;;;;-1.48;61.07;97992.70;1569146;91;25596;-68
2021/12/04 00:51:43;;;;;;;;;;;;;;;-1.65;61.96;97978.81;1569216;91;25654;-68
2021/12/04 00:54:10;;;;;;;;;;;;;;;-1.66;62.03;97979.88;1569238;91;25662;-68
2021/12/04 00:56:38;;;;;;;;;;;;;;;-1.70;62.11;97977.42;1569686;91;27524;-68
2021/12/04 00:59:05;;;;;;;;;;;;;;;-1.73;62.65;97972.55;1569162;91;25742;-68
2021/12/04 01:01:32;;;;;;;;;;;;;;;-1.75;63.15;97971.98;1569219;91;25714;-68
2021/12/04 01:03:58;;;;;;;;;;;;;;;-1.78;62.88;97971.95;1569247;91;25757;-68
2021/12/04 01:06:24;;;;;;;;;;;;;;;-1.71;63.31;97973.09;1569289;91;25456;-68
2021/12/04 01:08:50;;;;;;;;;;;;;;;-1.68;63.18;97972.59;1569224;91;27457;-68
2021/12/04 01:11:17;;;;;;;;;;;;;;;-1.64;63.12;97969.70;1569219;91;25674;-68
2021/12/04 01:13:43;;;;;;;;;;;;;;;-1.60;62.95;97972.69;1569170;91;25710;-68
2021/12/04 01:16:11;;;;;;;;;;;;;;;-1.61;63.38;97972.42;1569219;91;25727;-68
2021/12/04 01:18:38;;;;;;;;;;;;;;;-1.60;63.34;97972.69;1569280;91;25722;-68
2021/12/04 01:21:04;;;;;;;;;;;;;;;-1.56;63.33;97968.43;1569125;91;27499;-68
2021/12/04 01:23:30;;;;;;;;;;;;;;;-1.55;63.66;97962.02;1569206;91;25657;-68
2021/12/04 01:25:56;;;;;;;;;;;;;;;-1.54;64.18;97964.45;1569199;91;25545;-68
2021/12/04 01:28:22;;;;;;;;;;;;;;;-1.48;63.82;97956.42;1569229;91;25811;-68
2021/12/04 01:30:48;;;;;;;;;;;;;;;-1.45;63.83;97943.30;1569284;91;25544;-68
2021/12/04 01:33:15;;;;;;;;;;;;;;;-1.40;63.66;97939.34;1569341;91;27474;-68
2021/12/04 01:35:41;;;;;;;;;;;;;;;-1.37;64.09;97938.02;1569479;91;25541;-68
2021/12/04 01:38:07;;;;;;;;;;;;;;;-1.33;63.64;97938.33;1569142;91;25669;-68
2021/12/04 01:40:33;;;;;;;;;;;;;;;-1.30;63.71;97940.48;1569259;91;25748;-68
2021/12/04 01:42:59;;;;;;;;;;;;;;;-1.29;63.75;97938.89;1569291;91;25528;-68
2021/12/04 01:45:26;;;;;;;;;;;;;;;-1.29;63.65;97938.09;1569347;91;27504;-68
2021/12/04 01:47:58;;;;;;;;;;;;;;;-1.28;64.08;97930.30;1569440;91;25634;-68
2021/12/04 01:50:25;;;;;;;;;;;;;;;-1.27;63.99;97930.05;1569232;91;25619;-68
2021/12/04 01:52:55;;;;;;;;;;;;;;;-1.27;63.99;97923.33;1569311;91;25797;-68
2021/12/04 01:55:18;;;;;;;;;;;;;;;-1.24;63.93;97922.00;1569366;91;25485;-68
2021/12/04 01:57:44;;;;;;;;;;;;;;;-1.23;64.29;97917.44;1569144;91;27527;-68
2021/12/04 02:00:11;;;;;;;;;;;;;;;-1.23;63.97;97919.61;1569111;91;25703;-68
2021/12/04 02:02:39;;;;;;;;;;;;;;;-1.21;64.02;97918.02;1569161;91;25543;-68
2021/12/04 02:05:06;;;;;;;;;;;;;;;-1.20;64.03;97917.76;1569502;91;25730;-68
2021/12/04 02:07:32;;;;;;;;;;;;;;;-1.20;63.98;97916.41;1569415;91;25493;-68
2021/12/04 02:09:58;;;;;;;;;;;;;;;-1.19;64.26;97911.30;1569119;91;27553;-68
2021/12/04 02:12:24;;;;;;;;;;;;;;;-1.16;63.82;97912.66;1569150;91;25573;-68
2021/12/04 02:14:50;;;;;;;;;;;;;;;-1.16;63.91;97900.56;1569227;91;25695;-68
2021/12/04 02:17:16;;;;;;;;;;;;;;;-1.16;63.94;97897.87;1569201;91;25779;-68
2021/12/04 02:19:45;;;;;;;;;;;;;;;-1.16;64.05;97896.53;1569150;91;25550;-68
2021/12/04 02:22:11;;;;;;;;;;;;;;;-1.15;64.06;97893.58;1569226;91;26767;-68
2021/12/04 02:24:37;;;;;;;;;;;;;;;-1.14;63.89;97891.72;1569061;91;25480;-68
2021/12/04 02:27:04;;;;;;;;;;;;;;;-1.10;63.88;97890.69;1569243;91;25722;-68
2021/12/04 02:29:30;;;;;;;;;;;;;;;-1.11;63.80;97880.97;1569415;91;25737;-68
2021/12/04 02:31:58;;;;;;;;;;;;;;;-1.10;63.84;97872.66;1569197;91;25755;-68
2021/12/04 02:34:29;;;;;;;;;;;;;;;-1.10;63.90;97876.69;1569025;90;27492;-68
2021/12/04 02:36:57;;;;;;;;;;;;;;;-1.10;64.01;97875.34;1569387;91;25666;-68
2021/12/04 02:39:33;;;;;;;;;;;;;;;-1.09;63.92;97866.75;1569077;91;26256;-68
2021/12/04 02:42:00;;;;;;;;;;;;;;;-1.08;63.79;97857.08;1569204;91;26136;-68
2021/12/04 02:44:34;;;;;;;;;;;;;;;-1.08;63.93;97852.23;1569211;91;25449;-68
2021/12/04 02:47:01;;;;;;;;;;;;;;;-1.07;63.85;97853.87;1569199;91;29652;-68
2021/12/04 02:49:27;;;;;;;;;;;;;;;-1.08;64.02;97854.39;1569122;91;26055;-68
2021/12/04 02:51:53;;;;;;;;;;;;;;;-1.05;63.84;97851.19;1569190;91;25691;-68
2021/12/04 02:54:19;;;;;;;;;;;;;;;-1.04;63.91;97852.80;1569134;91;25844;-68
2021/12/04 02:56:45;;;;;;;;;;;;;;;-1.01;63.84;97849.59;1569392;91;25423;-68
2021/12/04 02:59:12;;;;;;;;;;;;;;;-1.02;64.06;97848.52;1569551;91;27995;-68
2021/12/04 03:01:43;;;;;;;;;;;;;;;-1.01;63.90;97850.13;1569288;91;25536;-68
2021/12/04 03:04:11;;;;;;;;;;;;;;;-0.99;64.03;97852.55;1569260;91;25682;-68
2021/12/04 03:06:45;;;;;;;;;;;;;;;-0.99;64.18;97846.66;1569714;91;26150;-68
2021/12/04 03:09:11;;;;;;;;;;;;;;;-0.96;63.84;97845.31;1569492;91;25536;-68
2021/12/04 03:11:37;;;;;;;;;;;;;;;-0.95;63.81;97842.38;1569407;91;29544;-68
2021/12/04 03:14:04;;;;;;;;;;;;;;;-0.95;64.03;97838.34;1569416;91;25708;-68
2021/12/04 03:16:34;;;;;;;;;;;;;;;-0.97;64.24;97832.42;1569417;91;25665;-68
2021/12/04 03:19:01;;;;;;;;;;;;;;;-0.99;64.28;97831.86;1569441;91;27873;-68
2021/12/04 03:21:27;;;;;;;;;;;;;;;-0.99;64.04;97833.20;1569537;91;25705;-68
2021/12/04 03:24:00;;;;;;;;;;;;;;;-1.00;64.01;97835.63;1569616;91;27450;-68
2021/12/04 03:26:23;;;;;;;;;;;;;;;-1.01;64.00;97833.98;1569115;91;25493;-68
2021/12/04 03:28:50;;;;;;;;;;;;;;;-1.03;64.02;97822.70;1569506;91;25544;-68
2021/12/04 03:42:15;;;;;;;;;;;;;;;-1.16;64.37;97799.73;1569632;91;25521;-68
2021/12/04 03:44:41;;;;;;;;;;;;;;;-1.17;64.45;97804.32;1569648;91;26723;-68
2021/12/04 03:47:08;;;;;;;;;;;;;;;-1.20;64.49;97800.80;1569671;91;25690;-68
2021/12/04 03:49:34;;;;;;;;;;;;;;;-1.20;64.23;97799.45;1569662;91;28624;-68
2021/12/04 03:52:00;;;;;;;;;;;;;;;-1.21;64.40;97795.12;1569561;91;25530;-68
2021/12/04 03:54:26;;;;;;;;;;;;;;;-1.27;64.89;97778.16;1569542;91;25539;-68
2021/12/04 03:57:02;;;;;;;;;;;;;;;-1.28;64.70;97779.23;1569602;91;25789;-68
2021/12/04 03:59:20;;;;;;;;;;;;;;;-1.33;65.07;97775.70;1569200;91;25505;-68
2021/12/04 04:01:46;;;;;;;;;;;;;;;-1.36;65.02;97777.56;1569860;91;27549;-68
2021/12/04 04:04:12;;;;;;;;;;;;;;;-1.36;65.02;97772.98;1569539;91;25537;-68
2021/12/04 04:06:38;;;;;;;;;;;;;;;-1.34;65.15;97772.20;1569629;91;25557;-68
2021/12/04 04:09:04;;;;;;;;;;;;;;;-1.36;65.38;97766.26;1569576;91;27952;-68
2021/12/04 04:11:30;;;;;;;;;;;;;;;-1.34;65.23;97766.00;1569501;91;25755;-68
2021/12/04 04:13:56;;;;;;;;;;;;;;;-1.38;64.90;97760.34;1569674;91;28075;-68
2021/12/04 04:16:22;;;;;;;;;;;;;;;-1.45;65.16;97765.11;1569377;91;25733;-68
2021/12/04 04:18:48;;;;;;;;;;;;;;;-1.52;65.08;97755.94;1569487;91;25468;-68
2021/12/04 04:21:14;;;;;;;;;;;;;;;-1.58;65.08;97742.19;1569431;91;27912;-68
2021/12/04 04:23:40;;;;;;;;;;;;;;;-1.61;65.17;97742.17;1569698;91;25783;-68
2021/12/04 04:26:06;;;;;;;;;;;;;;;-1.63;65.20;97736.23;1569440;91;29617;-68
2021/12/04 04:28:32;;;;;;;;;;;;;;;-1.63;65.04;97736.23;1569423;91;25788;-68
2021/12/04 04:30:58;;;;;;;;;;;;;;;-1.62;65.18;97733.02;1569510;91;25750;-68
2021/12/04 04:33:24;;;;;;;;;;;;;;;-1.65;65.31;97725.74;1569348;90;25824;-68
2021/12/04 04:36:05;;;;;;;;;;;;;;;-1.67;65.23;97725.18;1569535;91;25659;-68
2021/12/04 04:38:36;;;;;;;;;;;;;;;-1.66;65.20;97717.41;1568554;91;26124;-68
2021/12/04 04:57:39;;;;;;;;;;;;;;;-1.70;65.52;97705.54;1569296;91;25707;-68
2021/12/04 05:00:05;;;;;;;;;;;;;;;-1.69;65.61;97702.33;1566579;91;25720;-68
2021/12/04 05:02:37;;;;;;;;;;;;;;;-1.70;65.64;97696.69;1567072;91;25519;-68
2021/12/04 05:10:53;;;;;;;;;;;;;;;-1.68;65.61;97692.67;1569315;91;25466;-68
2021/12/04 05:13:10;;;;;;;;;;;;;;;-1.66;65.54;97678.46;1568705;91;25671;-68
2021/12/04 05:18:34;;;;;;;;;;;;;;;-1.62;65.59;97676.60;1569456;91;25908;-68
2021/12/04 05:20:54;;;;;;;;;;;;;;;-1.62;65.73;97669.89;1567226;91;25710;-68
2021/12/04 05:23:23;;;;;;;;;;;;;;;-1.59;65.53;97664.78;1569109;91;25706;-68
2021/12/04 05:25:50;;;;;;;;;;;;;;;-1.54;65.41;97673.42;1569184;91;25888;-68
2021/12/04 05:28:17;;;;;;;;;;;;;;;-1.53;65.55;97673.16;1569520;91;25679;-68
2021/12/04 05:30:43;;;;;;;;;;;;;;;-1.47;65.31;97667.83;1569409;91;28450;-68
2021/12/04 05:33:09;;;;;;;;;;;;;;;-1.49;65.40;97672.12;1569172;91;27292;-68
2021/12/04 05:35:35;;;;;;;;;;;;;;;-1.45;65.25;97671.05;1569254;91;25678;-68
2021/12/04 05:38:01;;;;;;;;;;;;;;;-1.45;65.29;97671.87;1569083;91;25714;-68
2021/12/04 05:40:27;;;;;;;;;;;;;;;-1.43;65.13;97668.40;1569234;91;25461;-68
2021/12/04 05:43:00;;;;;;;;;;;;;;;-1.43;64.91;97665.70;1569403;91;27160;-68
2021/12/04 05:45:24;;;;;;;;;;;;;;;-1.41;64.91;97664.11;1568935;91;25873;-68
2021/12/04 05:48:00;;;;;;;;;;;;;;;-1.40;64.89;97662.50;1569322;91;25505;-68
2021/12/04 05:53:17;;;;;;;;;;;;;;;-1.38;64.87;97655.52;1569275;91;25420;-68
2021/12/04 05:55:50;;;;;;;;;;;;;;;-1.39;64.71;97653.89;1569016;91;26190;-68
2021/12/04 05:58:00;;;;;;;;;;;;;;;-1.37;64.71;97657.13;1568310;91;25591;-68
2021/12/04 06:00:26;;;;;;;;;;;;;;;-1.37;64.64;97650.42;1569127;91;25713;-68
2021/12/04 06:02:52;;;;;;;;;;;;;;;-1.36;64.61;97642.61;1569234;91;25857;-68
2021/12/04 06:05:18;;;;;;;;;;;;;;;-1.36;64.53;97644.52;1569214;91;25726;-68
2021/12/04 06:07:44;;;;;;;;;;;;;;;-1.35;64.43;97644.78;1569235;91;27413;-69
2021/12/04 06:10:11;;;;;;;;;;;;;;;-1.36;64.50;97645.30;1569374;91;25721;-68
2021/12/04 06:12:37;;;;;;;;;;;;;;;-1.34;64.49;97641.83;1569215;91;25737;-68
2021/12/04 06:15:05;;;;;;;;;;;;;;;-1.34;64.47;97641.83;1569116;91;25864;-69
2021/12/04 06:17:31;;;;;;;;;;;;;;;-1.30;64.45;97642.09;1569161;91;25500;-68
2021/12/04 06:22:42;;;;;;;;;;;;;;;-1.28;64.40;97645.34;1569131;91;25495;-68
2021/12/04 06:25:10;;;;;;;;;;;;;;;-1.27;64.39;97650.47;1569480;91;25488;-68
2021/12/04 06:27:36;;;;;;;;;;;;;;;-1.26;64.61;97652.63;1569455;91;25827;-68
2021/12/04 06:30:09;;;;;;;;;;;;;;;-1.28;64.54;97649.38;1569251;91;25703;-68
2021/12/04 06:32:36;;;;;;;;;;;;;;;-1.29;64.62;97651.80;1569302;91;28262;-69
2021/12/04 06:35:05;;;;;;;;;;;;;;;-1.29;64.61;97651.25;1569065;90;25484;-69
2021/12/04 06:37:32;;;;;;;;;;;;;;;-1.29;64.77;97651.25;1568913;91;25748;-68
2021/12/04 06:39:58;;;;;;;;;;;;;;;-1.29;64.72;97650.46;1569075;91;25828;-68
2021/12/04 06:42:24;;;;;;;;;;;;;;;-1.28;64.72;97658.79;1569098;91;25713;-68
2021/12/04 06:44:53;;;;;;;;;;;;;;;-1.28;64.69;97658.27;1569308;91;27554;-68
2021/12/04 06:47:19;;;;;;;;;;;;;;;-1.27;64.76;97667.12;1569148;91;25500;-69
2021/12/04 06:49:45;;;;;;;;;;;;;;;-1.26;64.67;97667.41;1569106;91;25745;-69
2021/12/04 06:52:19;;;;;;;;;;;;;;;-1.26;64.62;97664.73;1569483;91;25848;-69
2021/12/04 06:54:43;;;;;;;;;;;;;;;-1.24;64.60;97669.84;1568790;91;25654;-68
2021/12/04 06:57:11;;;;;;;;;;;;;;;-1.23;64.63;97672.27;1569017;91;26028;-69
2021/12/04 06:59:39;;;;;;;;;;;;;;;-1.20;64.50;97668.24;1569127;91;25645;-69
2021/12/04 07:02:05;;;;;;;;;;;;;;;-1.18;64.45;97667.45;1569170;91;25673;-69
2021/12/04 07:04:35;;;;;;;;;;;;;;;-1.16;64.30;97663.95;1569188;91;25733;-68
2021/12/04 07:07:02;;;;;;;;;;;;;;;-1.12;64.26;97667.76;1569257;91;25666;-68
2021/12/04 07:09:28;;;;;;;;;;;;;;;-1.08;64.24;97659.96;1569337;91;27486;-68
2021/12/04 07:11:54;;;;;;;;;;;;;;;-1.06;64.16;97651.89;1569048;91;25742;-68
2021/12/04 07:14:20;;;;;;;;;;;;;;;-1.04;64.19;97658.36;1569208;91;25490;-68
2021/12/04 07:16:47;;;;;;;;;;;;;;;-1.01;64.18;97664.55;1569111;91;25760;-68
2021/12/04 07:19:13;;;;;;;;;;;;;;;-0.99;64.18;97654.88;1569371;91;25674;-68
2021/12/04 07:21:39;;;;;;;;;;;;;;;-0.96;64.17;97652.48;1569182;91;27620;-68
2021/12/04 07:24:05;;;;;;;;;;;;;;;-0.92;64.16;97646.05;1569302;91;25618;-68
2021/12/04 07:26:31;;;;;;;;;;;;;;;-0.89;64.12;97642.84;1569316;91;25709;-68
2021/12/04 07:28:57;;;;;;;;;;;;;;;-0.89;64.13;97647.66;1556862;91;25778;-68
2021/12/04 07:31:23;;;;;;;;;;;;;;;-0.87;64.04;97643.92;1549198;91;25714;-68
2021/12/04 07:33:50;;;;;;;;;;;;;;;-0.88;63.98;97637.73;1545135;93;29636;-68
2021/12/04 07:36:17;;;;;;;;;;;;;;;-0.87;63.94;97631.27;1544948;92;25774;-68
2021/12/04 07:38:43;;;;;;;;;;;;;;;-0.85;63.96;97631.00;1545073;93;25460;-68
2021/12/04 07:41:10;;;;;;;;;;;;;;;-0.84;63.91;97627.26;1545220;92;25804;-68
2021/12/04 07:43:36;;;;;;;;;;;;;;;-0.82;63.91;97623.75;1545268;92;25627;-68
2021/12/04 07:46:02;;;;;;;;;;;;;;;-0.80;63.94;97618.92;1545189;92;27550;-68
2021/12/04 07:48:29;;;;;;;;;;;;;;;-0.77;63.90;97617.05;1545051;93;25719;-68
2021/12/04 07:50:55;;;;;;;;;;;;;;;-0.73;63.85;97615.44;1552542;91;25685;-68
2021/12/04 07:53:22;;;;;;;;;;;;;;;-0.68;63.70;97618.67;1547620;91;25804;-68
2021/12/04 07:55:48;;;;;;;;;;;;;;;-0.63;63.62;97622.73;1545161;92;25736;-69
2021/12/04 07:58:15;;;;;;;;;;;;;;;-0.53;63.65;97622.75;1545180;93;29729;-68
2021/12/04 08:00:42;;;;;;;;;;;;;;;-0.43;63.57;97621.16;1545383;92;25731;-68
2021/12/04 08:03:09;;;;;;;;;;;;;;;-0.32;63.12;97620.63;1545275;93;25731;-68
2021/12/04 08:05:36;;;;;;;;;;;;;;;-0.27;62.79;97621.97;1545075;93;25646;-68
2021/12/04 08:08:04;;;;;;;;;;;;;;;-0.19;62.96;97617.41;1550178;91;25774;-68
2021/12/04 08:10:31;;;;;;;;;;;;;;;-0.09;62.76;97615.80;1545519;93;27430;-68
2021/12/04 08:12:59;;;;;;;;;;;;;;;-0.01;62.67;97616.06;1545199;93;25687;-69
2021/12/04 08:15:26;;;;;;;;;;;;;;;0.10;62.31;97612.82;1545333;92;25484;-69
2021/12/04 08:17:52;;;;;;;;;;;;;;;0.23;62.25;97607.41;1545405;92;25702;-69
2021/12/04 08:20:19;;;;;;;;;;;;;;;0.34;62.16;97612.24;1545474;92;25510;-69
2021/12/04 08:22:47;;;;;;;;;;;;;;;0.42;61.94;97612.23;1545416;92;27735;-69
2021/12/04 08:25:16;;;;;;;;;;;;;;;0.59;62.18;97601.67;1545504;93;25725;-69
2021/12/04 08:27:44;;;;;;;;;;;;;;;0.74;61.36;97602.16;1545401;93;25544;-69
2021/12/04 08:30:14;;;;;;;;;;;;;;;0.85;61.37;97598.89;1545429;93;25746;-66
2021/12/04 08:32:41;;;;;;;;;;;;;;;0.92;60.89;97588.59;1545607;92;25471;-66
2021/12/04 08:35:09;;;;;;;;;;;;;;;1.03;60.79;97587.23;1549088;91;27543;-66
2021/12/04 08:37:37;;;;;;;;;;;;;;;1.06;60.03;97600.95;1547271;91;25850;-66
2021/12/04 08:40:10;;;;;;;;;;;;;;;1.00;60.43;97588.03;1545270;93;25474;-67
2021/12/04 08:42:34;;;;;;;;;;;;;;;0.99;60.21;97587.78;1545088;93;25664;-67
2021/12/04 08:45:00;;;;;;;;;;;;;;;0.96;60.62;97584.81;1545261;92;25541;-67
2021/12/04 08:47:27;;;;;;;;;;;;;;;0.99;59.73;97586.96;1545378;92;27644;-67
2021/12/04 08:49:53;;;;;;;;;;;;;;;1.04;60.32;97580.20;1545166;93;27249;-67
2021/12/04 08:52:20;;;;;;;;;;;;;;;1.12;59.96;97578.25;1545212;92;25727;-67
2021/12/04 08:54:47;;;;;;;;;;;;;;;1.22;59.94;97577.94;1545423;92;25939;-67
2021/12/04 08:57:14;;;;;;;;;;;;;;;1.34;59.92;97580.29;1545311;92;25712;-67
2021/12/04 08:59:41;;;;;;;;;;;;;;;1.48;59.54;97577.24;1545145;92;27639;-68
2021/12/04 09:02:09;;;;;;;;;;;;;;;1.65;59.38;97580.62;1545319;92;25520;-68
2021/12/04 09:04:36;;;;;;;;;;;;;;;1.78;59.01;97570.52;1545172;92;25734;-68
2021/12/04 09:07:04;;;;;;;;;;;;;;;1.91;57.92;97562.33;1545280;91;25812;-68
2021/12/04 09:09:31;;;;;;;;;;;;;;;2.11;58.38;97561.87;1545810;92;25670;-68
2021/12/04 09:12:01;;;;;;;;;;;;;;;2.42;57.79;97562.11;1545182;93;27584;-68
2021/12/04 09:14:30;;;;;;;;;;;;;;;2.65;56.63;97552.39;1545298;93;25755;-68
2021/12/04 09:16:59;;;;;;;;;;;;;;;2.92;56.91;97551.50;1545461;92;25569;-69
2021/12/04 09:19:27;;;;;;;;;;;;;;;3.39;56.80;97547.61;1545426;93;25758;-68
2021/12/04 09:21:54;;;;;;;;;;;;;;;3.84;55.63;97550.45;1545292;93;25640;-69
2021/12/04 09:24:39;;;;;;;;;;;;;;;4.31;53.53;97540.94;1545472;93;28169;-69
2021/12/04 09:30:04;;;;;;;;;;;;;;;5.12;53.91;97529.81;1545467;92;25710;-69
2021/12/04 09:59:48;;;;;;;;;;;;;;;8.07;42.28;97483.80;1545203;93;25573;-68
2021/12/04 10:19:00;;;;;;;;;;;;;;;10.03;38.50;97467.62;1568943;91;25924;-67
2021/12/04 10:32:34;;;;;;;;;;;;;;;10.06;39.21;97449.72;1559450;91;25968;-68
2021/12/04 10:35:07;;;;;;;;;;;;;;;10.35;39.39;97444.62;1542401;93;25531;-68
2021/12/04 10:37:37;;;;;;;;;;;;;;;10.62;36.53;97442.34;1546050;92;25743;-68
2021/12/04 10:40:06;;;;;;;;;;;;;;;10.84;37.43;97436.71;1547152;92;25715;-67
2021/12/04 10:42:51;;;;;;;;;;;;;;;11.02;36.95;97434.50;1547550;92;25531;-67
2021/12/04 10:45:17;;;;;;;;;;;;;;;11.37;37.78;97431.77;1547074;92;25981;-66
2021/12/04 10:47:55;;;;;;;;;;;;;;;11.55;36.92;97429.52;1547139;92;25509;-67
2021/12/04 10:50:42;;;;;;;;;;;;;;;11.55;34.25;97422.06;1547247;92;25728;-67
2021/12/04 10:53:10;;;;;;;;;;;;;;;11.44;33.12;97418.25;1547149;92;25709;-67
2021/12/04 11:01:34;;;;;;;;;;;;;;;10.47;35.05;97408.23;1547210;92;25536;-67
2021/12/04 11:03:58;;;;;;;;;;;;;;;10.63;35.44;97404.80;1546961;92;25512;-67
2021/12/04 11:20:43;;;;;;;;;;;;;;;9.90;37.08;97383.33;1547234;92;25713;-68
2021/12/04 11:38:55;;;;;;;;;;;;;;;7.50;38.33;97342.02;1499711;95;26022;-71
2021/12/04 11:41:39;;;;;;;;;;;;;;;7.19;37.77;97332.73;1499410;95;25810;-71
2021/12/04 11:44:10;;;;;;;;;;;;;;;6.90;38.99;97322.74;1499601;95;25582;-68
2021/12/04 11:46:45;;;;;;;;;;;;;;;6.64;38.72;97320.84;1499462;95;25783;-68
2021/12/04 11:49:18;;;;;;;;;;;;;;;6.34;39.13;97325.57;1499868;95;25513;-68
2021/12/04 11:52:00;;;;;;;;;;;;;;;6.19;39.39;97323.30;1499853;95;27306;-70
2021/12/04 11:54:36;;;;;;;;;;;;;;;5.90;40.88;97316.73;1499716;95;25706;-69
2021/12/04 11:57:08;;;;;;;;;;;;;;;5.72;41.59;97317.23;1499854;95;25751;-69
2021/12/04 11:59:37;;;;;;;;;;;;;;;5.54;42.33;97325.89;1499515;95;25811;-69
2021/12/04 12:02:05;;;;;;;;;;;;;;;5.29;42.65;97326.80;1526771;92;25756;-69
2021/12/04 12:04:34;;;;;;;;;;;;;;;5.09;42.97;97324.86;1547560;92;28341;-70
2021/12/04 12:07:12;;;;;;;;;;;;;;;4.84;43.54;97327.66;1547154;92;25771;-69
2021/12/04 12:09:40;;;;;;;;;;;;;;;4.66;43.95;97321.31;1547446;92;25537;-69
2021/12/04 12:12:11;;;;;;;;;;;;;;;4.53;44.25;97323.77;1547527;92;26657;-69
2021/12/04 12:14:48;;;;;;;;;;;;;;;4.38;44.76;97324.34;1547539;92;25675;-69
2021/12/04 12:17:10;;;;;;;;;;;;;;;4.23;45.33;97323.35;1546677;92;27114;-69
2021/12/04 12:19:43;;;;;;;;;;;;;;;4.14;45.67;97321.34;1547396;92;25786;-69
2021/12/04 12:22:37;;;;;;;;;;;;;;;4.09;45.70;97314.67;1553080;91;25746;-70
2021/12/04 12:25:24;;;;;;;;;;;;;;;3.98;46.14;97304.63;1561450;91;25759;-70
2021/12/04 12:33:32;;;;;;;;;;;;;;;3.73;47.03;97299.97;1562179;91;25520;-70
2021/12/04 12:36:03;;;;;;;;;;;;;;;3.60;47.36;97298.08;1570748;91;25707;-70
2021/12/04 12:38:53;;;;;;;;;;;;;;;3.54;47.41;97299.28;1569471;91;25745;-70
2021/12/04 12:41:32;;;;;;;;;;;;;;;3.49;47.66;97300.17;1569505;91;25711;-70
2021/12/04 12:44:04;;;;;;;;;;;;;;;3.46;47.71;97295.36;1569523;91;28076;-70
2021/12/04 12:46:40;;;;;;;;;;;;;;;3.44;47.79;97293.49;1568867;91;27250;-70
2021/12/04 12:49:19;;;;;;;;;;;;;;;3.40;48.07;97287.89;1569178;91;25666;-70
2021/12/04 12:51:54;;;;;;;;;;;;;;;3.37;48.10;97292.55;1569285;91;25844;-70
2021/12/04 12:54:42;;;;;;;;;;;;;;;3.26;48.18;97282.46;1569527;91;25500;-71
2021/12/04 12:57:20;;;;;;;;;;;;;;;3.25;48.25;97295.19;1569018;91;27814;-70
2021/12/04 13:14:21;;;;;;;;;;;;;;;3.34;48.59;97300.70;1569145;91;25658;-70
2021/12/04 13:17:00;;;;;;;;;;;;;;;3.31;48.83;97305.94;1566747;91;25686;-70
2021/12/04 13:19:26;;;;;;;;;;;;;;;3.29;48.98;97303.53;1565219;91;25826;-69
2021/12/04 13:21:58;;;;;;;;;;;;;;;3.29;49.17;97305.42;1569526;91;25510;-67
2021/12/04 13:24:27;;;;;;;;;;;;;;;3.26;49.32;97306.83;1569273;91;27501;-68
2021/12/04 13:26:55;;;;;;;;;;;;;;;3.20;49.62;97307.45;1569393;91;25861;-70
2021/12/04 13:29:24;;;;;;;;;;;;;;;3.23;49.48;97302.02;1569471;91;25630;-67
2021/12/04 13:31:55;;;;;;;;;;;;;;;3.21;49.73;97309.08;1568923;91;25793;-68
2021/12/04 13:34:27;;;;;;;;;;;;;;;3.13;49.76;97302.98;1569208;91;25461;-67
2021/12/04 13:36:54;;;;;;;;;;;;;;;2.98;50.00;97302.70;1569125;90;27481;-68
2021/12/04 13:39:21;;;;;;;;;;;;;;;2.97;49.77;97296.48;1569344;91;25663;-70
2021/12/04 13:41:50;;;;;;;;;;;;;;;2.97;50.06;97284.30;1569262;91;25716;-70
2021/12/04 13:44:18;;;;;;;;;;;;;;;2.96;50.20;97292.18;1568224;91;25814;-70
2021/12/04 13:46:47;;;;;;;;;;;;;;;2.94;50.18;97282.19;1569433;91;25522;-70
2021/12/04 13:49:17;;;;;;;;;;;;;;;2.91;50.51;97294.99;1569365;91;27987;-69
2021/12/04 13:51:43;;;;;;;;;;;;;;;2.90;50.99;97293.37;1569533;91;25707;-68
2021/12/04 13:54:09;;;;;;;;;;;;;;;2.91;51.08;97291.47;1569650;91;25521;-68
2021/12/04 13:56:36;;;;;;;;;;;;;;;2.91;51.13;97289.58;1569441;91;26255;-70
2021/12/04 13:59:05;;;;;;;;;;;;;;;2.93;51.15;97290.06;1569411;91;25662;-67
2021/12/04 14:01:34;;;;;;;;;;;;;;;2.94;50.74;97290.31;1569350;91;28103;-69
2021/12/04 14:04:03;;;;;;;;;;;;;;;3.00;50.56;97301.88;1556631;91;26079;-67
2021/12/04 14:06:30;;;;;;;;;;;;;;;3.00;50.32;97288.34;1545422;93;25740;-68
2021/12/04 14:09:05;;;;;;;;;;;;;;;3.01;50.24;97282.63;1545242;93;25817;-69
2021/12/04 14:11:33;;;;;;;;;;;;;;;3.03;50.30;97286.94;1543725;93;25700;-68
2021/12/04 14:14:12;;;;;;;;;;;;;;;2.95;50.56;97272.18;1545280;93;28429;-68
2021/12/04 14:16:38;;;;;;;;;;;;;;;2.90;50.84;97272.29;1545214;93;25554;-68
2021/12/04 14:19:14;;;;;;;;;;;;;;;2.84;51.15;97277.78;1545076;93;25489;-67
2021/12/04 14:21:40;;;;;;;;;;;;;;;2.78;51.75;97273.55;1545097;93;26040;-66
2021/12/04 14:24:06;;;;;;;;;;;;;;;2.73;51.61;97276.33;1545305;93;25558;-67
2021/12/04 14:26:33;;;;;;;;;;;;;;;2.71;51.88;97286.66;1545384;93;27678;-67
2021/12/04 14:29:00;;;;;;;;;;;;;;;2.71;51.86;97290.15;1545038;93;25749;-67
2021/12/04 14:31:26;;;;;;;;;;;;;;;2.72;52.01;97301.25;1545159;93;25729;-67
2021/12/04 14:33:52;;;;;;;;;;;;;;;2.68;52.08;97290.73;1545165;93;25854;-66
2021/12/04 14:36:20;;;;;;;;;;;;;;;2.64;52.48;97282.97;1545391;93;25449;-67
2021/12/04 14:38:47;;;;;;;;;;;;;;;2.60;52.82;97274.66;1545032;92;27541;-67
2021/12/04 14:41:15;;;;;;;;;;;;;;;2.57;52.83;97277.95;1545282;93;25509;-67
2021/12/04 14:43:41;;;;;;;;;;;;;;;2.53;52.85;97278.27;1545248;93;25786;-67
2021/12/04 14:46:14;;;;;;;;;;;;;;;2.51;52.96;97279.92;1545221;93;25757;-67
2021/12/04 14:48:43;;;;;;;;;;;;;;;2.49;53.14;97279.42;1545223;93;25469;-67
2021/12/04 14:51:15;;;;;;;;;;;;;;;2.46;52.99;97282.72;1545073;93;27430;-66
2021/12/04 14:53:51;;;;;;;;;;;;;;;2.46;53.49;97283.26;1545272;93;26058;-67
2021/12/04 14:56:19;;;;;;;;;;;;;;;2.44;53.63;97285.44;1545309;93;25662;-68
2021/12/04 14:58:45;;;;;;;;;;;;;;;2.44;53.47;97287.61;1545197;93;25790;-69
2021/12/04 15:01:14;;;;;;;;;;;;;;;2.41;54.17;97283.33;1545410;93;25245;-68
2021/12/04 15:03:43;;;;;;;;;;;;;;;2.36;53.97;97279.61;1545379;93;27341;-69
2021/12/04 15:06:13;;;;;;;;;;;;;;;2.35;54.36;97275.84;1544739;93;25496;-69
2021/12/04 15:08:42;;;;;;;;;;;;;;;2.32;54.31;97276.44;1545539;93;25735;-68
2021/12/04 15:11:19;;;;;;;;;;;;;;;2.30;54.87;97286.19;1545207;93;25667;-69
2021/12/04 15:13:53;;;;;;;;;;;;;;;2.28;54.56;97280.83;1545337;93;25434;-69
2021/12/04 15:16:33;;;;;;;;;;;;;;;2.28;54.62;97280.30;1545110;93;27408;-68
2021/12/04 15:18:50;;;;;;;;;;;;;;;2.26;55.00;97279.77;1544382;93;25670;-68
2021/12/04 15:21:18;;;;;;;;;;;;;;;2.28;55.04;97285.70;1545367;91;25724;-69
2021/12/04 15:23:46;;;;;;;;;;;;;;;2.27;55.11;97286.77;1545288;93;25772;-68
2021/12/04 15:26:16;;;;;;;;;;;;;;;2.26;55.42;97291.94;1545348;93;25651;-68
2021/12/04 15:28:55;;;;;;;;;;;;;;;2.25;55.42;97290.34;1545432;93;28127;-67
2021/12/04 15:31:24;;;;;;;;;;;;;;;2.24;55.61;97287.36;1545314;93;25671;-68
2021/12/04 15:33:54;;;;;;;;;;;;;;;2.20;56.17;97288.51;1545372;93;25724;-68
2021/12/04 15:36:27;;;;;;;;;;;;;;;2.18;55.99;97273.13;1545160;93;26450;-68
2021/12/04 15:38:57;;;;;;;;;;;;;;;2.17;56.21;97280.98;1540284;92;25769;-68
2021/12/04 15:47:07;;;;;;;;;;;;;;;2.16;56.82;97288.81;1558552;91;25485;-69
2021/12/04 15:50:40;;;;;;;;;;;;;;;2.14;56.74;97286.97;1557363;91;25838;-68
2021/12/04 15:54:46;;;;;;;;;;;;;;;2.09;56.80;97280.28;1566276;91;26792;-68
2021/12/04 15:57:14;;;;;;;;;;;;;;;2.09;56.91;97287.03;1569339;91;25887;-68